Time;durP1;ratioP1;P1;durP2;ratioP2;P2;SDS_P1;SDS_P2;PMS_P1;PMS_P2;Temp;Humidity;BMP_temperature;BMP_pressure;BME280_temperature;BME280_humidity;BME280_pressure;Samples;Min_cycle;Max_cycle;Signal;HPM_P1;HPM_P2
2021/07/29 00:02:01;;;;;;;2.75;1.40;;;17.00;99.90;;;;;;4909623;29;20262;-66
2021/07/29 00:04:28;;;;;;;2.53;1.70;;;17.10;99.90;;;;;;4908681;29;20686;-69
2021/07/29 00:06:54;;;;;;;2.85;1.42;;;17.00;99.90;;;;;;4909974;29;20206;-66
2021/07/29 00:09:20;;;;;;;1.95;1.52;;;17.00;99.90;;;;;;4909167;29;20186;-67
2021/07/29 00:11:45;;;;;;;2.15;1.50;;;17.00;99.90;;;;;;4909441;29;20219;-68
2021/07/29 00:14:11;;;;;;;2.83;1.70;;;17.00;99.90;;;;;;4907175;29;20301;-68
2021/07/29 00:16:45;;;;;;;1.52;1.42;;;17.00;99.90;;;;;;4908783;29;20551;-67
2021/07/29 00:19:11;;;;;;;1.70;1.17;;;17.00;99.90;;;;;;4909264;29;20191;-67
2021/07/29 00:21:38;;;;;;;1.55;1.27;;;17.00;99.90;;;;;;4909084;29;20199;-68
2021/07/29 00:24:05;;;;;;;1.33;1.10;;;17.00;99.90;;;;;;4908436;29;20277;-66
2021/07/29 00:26:31;;;;;;;9.65;1.60;;;17.00;99.90;;;;;;4909042;29;20218;-67
2021/07/29 00:28:57;;;;;;;2.45;1.38;;;17.00;99.90;;;;;;4909134;29;20250;-66
2021/07/29 00:31:32;;;;;;;1.50;1.23;;;16.90;99.90;;;;;;4908759;29;20191;-69
2021/07/29 00:33:58;;;;;;;1.33;1.13;;;16.80;99.90;;;;;;4907936;29;20210;-68
2021/07/29 00:36:24;;;;;;;5.13;1.58;;;16.80;99.90;;;;;;4908873;29;20218;-69
2021/07/29 00:38:50;;;;;;;1.85;1.75;;;16.80;99.90;;;;;;4908476;29;20630;-69
2021/07/29 00:41:15;;;;;;;1.98;1.42;;;16.70;99.90;;;;;;4908995;29;20254;-68
2021/07/29 00:43:42;;;;;;;1.35;1.25;;;16.50;99.90;;;;;;4908420;29;20585;-68
2021/07/29 00:46:08;;;;;;;1.73;1.40;;;16.50;99.90;;;;;;4908437;29;20282;-67
2021/07/29 00:48:34;;;;;;;4.22;1.15;;;16.60;99.90;;;;;;4908828;29;20179;-67
2021/07/29 00:51:00;;;;;;;1.48;1.30;;;16.50;99.90;;;;;;4908542;29;20179;-70
2021/07/29 00:53:26;;;;;;;1.92;1.20;;;16.50;99.90;;;;;;4908503;29;20201;-66
2021/07/29 00:55:53;;;;;;;2.15;1.20;;;16.50;99.90;;;;;;4907843;29;20253;-67
2021/07/29 00:58:18;;;;;;;1.70;1.30;;;16.60;99.90;;;;;;4907351;29;20614;-68
2021/07/29 01:00:44;;;;;;;1.33;1.23;;;16.60;99.90;;;;;;4908587;29;20285;-68
2021/07/29 01:03:10;;;;;;;1.88;1.20;;;16.70;99.90;;;;;;4908341;29;20191;-71
2021/07/29 01:05:36;;;;;;;1.35;1.10;;;16.70;99.90;;;;;;4907762;29;20221;-69
2021/07/29 01:08:01;;;;;;;1.50;1.20;;;16.70;99.90;;;;;;4908406;29;20183;-67
2021/07/29 01:10:27;;;;;;;1.88;1.27;;;16.70;99.90;;;;;;4908493;29;20661;-68
2021/07/29 01:12:52;;;;;;;1.58;1.05;;;16.70;99.90;;;;;;4908153;29;20672;-69
2021/07/29 01:15:18;;;;;;;1.48;1.30;;;16.50;99.90;;;;;;4907454;29;20222;-69
2021/07/29 01:17:44;;;;;;;2.70;1.02;;;16.50;99.90;;;;;;4908110;29;20187;-69
2021/07/29 01:20:16;;;;;;;1.77;1.02;;;16.50;99.90;;;;;;4908331;29;20186;-70
2021/07/29 01:22:42;;;;;;;1.35;1.00;;;16.50;99.90;;;;;;4908130;29;20194;-69
2021/07/29 01:25:10;;;;;;;5.20;1.33;;;16.50;99.90;;;;;;4907366;29;20186;-69
2021/07/29 01:27:37;;;;;;;1.50;1.02;;;16.50;99.90;;;;;;4908148;29;20187;-68
2021/07/29 01:30:03;;;;;;;4.88;1.45;;;16.40;99.90;;;;;;4908157;29;20183;-68
2021/07/29 01:32:29;;;;;;;1.52;1.25;;;16.40;99.90;;;;;;4908146;29;20242;-68
2021/07/29 01:34:57;;;;;;;1.30;1.20;;;16.40;99.90;;;;;;4907132;29;20206;-66
2021/07/29 01:37:23;;;;;;;1.50;1.33;;;16.30;99.90;;;;;;4908127;29;20262;-70
2021/07/29 01:39:48;;;;;;;1.20;0.98;;;16.30;99.90;;;;;;4908255;29;20229;-67
2021/07/29 01:42:14;;;;;;;2.47;1.42;;;16.20;99.90;;;;;;4907961;29;20191;-67
2021/07/29 01:44:39;;;;;;;1.40;1.30;;;16.10;99.90;;;;;;4906923;29;20195;-67
2021/07/29 01:47:05;;;;;;;3.20;1.00;;;16.10;99.90;;;;;;4907928;29;20718;-67
2021/07/29 01:49:31;;;;;;;2.70;1.42;;;16.00;99.90;;;;;;4908457;29;20191;-68
2021/07/29 01:51:56;;;;;;;1.30;1.20;;;16.00;99.90;;;;;;4907675;29;20258;-69
2021/07/29 01:54:22;;;;;;;2.33;1.40;;;16.00;99.90;;;;;;4906983;29;20223;-69
2021/07/29 01:56:48;;;;;;;1.13;1.00;;;16.10;99.90;;;;;;4906016;29;20215;-68
2021/07/29 01:59:13;;;;;;;1.42;1.05;;;16.00;99.90;;;;;;4908091;29;20175;-70
2021/07/29 02:01:40;;;;;;;3.38;1.30;;;16.00;99.90;;;;;;4906748;29;20242;-68
2021/07/29 02:04:06;;;;;;;1.20;1.10;;;16.10;99.90;;;;;;4907717;29;20195;-70
2021/07/29 02:06:34;;;;;;;1.45;1.33;;;16.10;99.90;;;;;;4907825;29;20221;-70
2021/07/29 02:09:00;;;;;;;1.10;1.00;;;16.10;99.90;;;;;;4907857;29;20187;-68
2021/07/29 02:11:30;;;;;;;1.13;1.02;;;16.20;99.90;;;;;;4907985;29;20198;-66
2021/07/29 02:13:56;;;;;;;1.67;1.00;;;16.30;99.90;;;;;;4907495;29;20242;-66
2021/07/29 02:16:22;;;;;;;1.27;1.15;;;16.40;99.90;;;;;;4907739;29;20202;-68
2021/07/29 02:18:47;;;;;;;1.45;1.05;;;16.40;99.90;;;;;;4907498;29;20183;-68
2021/07/29 02:21:13;;;;;;;1.30;1.20;;;16.60;99.90;;;;;;4907740;29;20183;-69
2021/07/29 02:23:39;;;;;;;1.30;1.00;;;16.70;99.90;;;;;;4907405;29;20202;-68
2021/07/29 02:26:04;;;;;;;1.35;1.20;;;16.70;99.90;;;;;;4907607;29;20207;-69
2021/07/29 02:28:30;;;;;;;2.28;1.20;;;16.80;99.90;;;;;;4907760;29;20183;-66
2021/07/29 02:30:56;;;;;;;2.03;1.27;;;16.80;99.90;;;;;;4908200;29;20666;-67
2021/07/29 02:33:22;;;;;;;1.10;0.90;;;16.80;99.90;;;;;;4907352;29;20275;-67
2021/07/29 02:35:48;;;;;;;0.77;0.77;;;16.80;99.90;;;;;;4906840;29;20570;-67
2021/07/29 02:38:15;;;;;;;1.45;1.10;;;16.80;99.90;;;;;;4907546;29;20253;-67
2021/07/29 02:40:40;;;;;;;2.70;1.20;;;16.90;99.90;;;;;;4907523;29;20281;-69
2021/07/29 02:43:06;;;;;;;1.42;1.20;;;16.80;99.90;;;;;;4907419;29;20183;-66
2021/07/29 02:45:32;;;;;;;2.78;1.40;;;16.80;99.90;;;;;;4906960;29;20600;-69
2021/07/29 02:47:57;;;;;;;1.40;1.30;;;16.90;99.90;;;;;;4906216;29;20198;-68
2021/07/29 02:50:23;;;;;;;1.27;1.13;;;16.90;99.90;;;;;;4907512;29;20198;-66
2021/07/29 02:52:48;;;;;;;2.22;1.17;;;16.90;99.90;;;;;;4907397;29;20183;-67
2021/07/29 02:55:14;;;;;;;1.67;1.30;;;16.90;99.90;;;;;;4905567;29;20306;-67
2021/07/29 02:57:40;;;;;;;1.20;1.05;;;16.80;99.90;;;;;;4910929;29;20187;-67
2021/07/29 03:00:06;;;;;;;1.13;1.00;;;16.70;99.90;;;;;;4910641;29;20198;-67
2021/07/29 03:02:32;;;;;;;1.55;1.10;;;16.70;99.90;;;;;;4910485;29;20198;-67
2021/07/29 03:04:57;;;;;;;1.52;1.25;;;16.70;99.90;;;;;;4910006;29;20183;-67
2021/07/29 03:07:23;;;;;;;1.30;1.20;;;16.80;99.90;;;;;;4909201;29;20218;-66
2021/07/29 03:09:48;;;;;;;1.30;1.20;;;16.90;99.90;;;;;;4910557;29;20187;-66
2021/07/29 03:12:14;;;;;;;1.45;1.10;;;16.90;99.90;;;;;;4910899;29;20654;-69
2021/07/29 03:14:40;;;;;;;1.65;1.30;;;17.00;99.90;;;;;;4909947;29;20222;-67
2021/07/29 03:17:06;;;;;;;2.05;1.30;;;16.90;99.90;;;;;;4910057;29;20215;-68
2021/07/29 03:19:31;;;;;;;1.40;1.30;;;16.90;99.90;;;;;;4910467;29;20215;-68
2021/07/29 03:21:57;;;;;;;1.40;1.05;;;16.90;99.90;;;;;;4910289;29;20216;-66
2021/07/29 03:24:22;;;;;;;0.98;0.90;;;16.80;99.90;;;;;;4909669;29;20190;-70
2021/07/29 03:26:48;;;;;;;1.50;1.40;;;16.80;99.90;;;;;;4910108;29;20207;-70
2021/07/29 03:29:14;;;;;;;2.97;1.48;;;16.80;99.90;;;;;;4910720;29;20281;-67
2021/07/29 03:31:40;;;;;;;1.17;1.13;;;16.80;99.90;;;;;;4910438;29;20661;-67
2021/07/29 03:34:05;;;;;;;1.75;1.20;;;16.80;99.90;;;;;;4909167;29;20227;-68
2021/07/29 03:36:31;;;;;;;1.35;1.08;;;16.70;99.90;;;;;;4908720;29;20569;-66
2021/07/29 03:38:58;;;;;;;2.13;1.17;;;16.70;99.90;;;;;;4910219;29;20222;-68
2021/07/29 03:41:23;;;;;;;2.20;1.48;;;16.60;99.90;;;;;;4910150;29;20179;-68
2021/07/29 03:43:49;;;;;;;2.13;1.48;;;16.60;99.90;;;;;;4909268;29;20190;-68
2021/07/29 03:46:15;;;;;;;1.67;1.20;;;16.60;99.90;;;;;;4909781;29;20244;-69
2021/07/29 03:48:40;;;;;;;1.10;1.00;;;16.70;99.90;;;;;;4909846;29;20183;-68
2021/07/29 03:51:11;;;;;;;2.33;1.23;;;16.70;99.90;;;;;;4909784;29;20194;-67
2021/07/29 03:53:37;;;;;;;2.58;1.20;;;16.80;99.90;;;;;;4909784;29;20189;-67
2021/07/29 03:56:03;;;;;;;2.20;1.35;;;16.80;99.90;;;;;;4909146;29;20207;-68
2021/07/29 03:58:28;;;;;;;3.35;1.30;;;16.90;99.90;;;;;;4909711;29;20228;-70
2021/07/29 04:00:56;;;;;;;1.50;1.40;;;16.80;99.90;;;;;;4908304;29;20222;-66
2021/07/29 04:03:22;;;;;;;1.30;1.20;;;16.70;99.90;;;;;;4903580;29;20295;-69
2021/07/29 04:05:49;;;;;;;3.03;1.02;;;16.70;99.90;;;;;;4908750;29;20211;-70
2021/07/29 04:08:14;;;;;;;1.25;1.00;;;16.70;99.90;;;;;;4909096;29;20282;-66
2021/07/29 04:10:40;;;;;;;1.20;0.98;;;16.80;99.90;;;;;;4907426;29;20777;-66
2021/07/29 04:13:05;;;;;;;1.20;1.08;;;16.90;99.90;;;;;;4908855;29;20667;-66
2021/07/29 04:15:31;;;;;;;3.70;1.30;;;17.00;99.90;;;;;;4908151;29;20223;-66
2021/07/29 04:17:57;;;;;;;2.08;1.17;;;17.10;99.90;;;;;;4907943;29;20525;-67
2021/07/29 04:20:22;;;;;;;1.20;0.90;;;17.20;99.90;;;;;;4909262;29;20666;-67
2021/07/29 04:22:48;;;;;;;2.15;1.30;;;17.30;99.90;;;;;;4909219;29;20884;-66
2021/07/29 04:25:13;;;;;;;1.77;1.30;;;17.40;99.90;;;;;;4906642;29;20195;-69
2021/07/29 04:27:39;;;;;;;1.70;1.05;;;17.50;99.90;;;;;;4908382;29;20183;-68
2021/07/29 04:30:05;;;;;;;1.63;1.00;;;17.60;99.90;;;;;;4908595;29;20182;-66
2021/07/29 04:32:35;;;;;;;1.23;1.13;;;17.60;99.90;;;;;;4908609;29;20202;-69
2021/07/29 04:35:02;;;;;;;1.35;1.00;;;17.60;99.90;;;;;;4908060;29;20686;-69
2021/07/29 04:37:28;;;;;;;1.20;1.10;;;17.70;99.90;;;;;;4908595;29;20663;-66
2021/07/29 04:39:54;;;;;;;1.52;1.27;;;17.70;99.90;;;;;;4908459;29;20190;-68
2021/07/29 04:42:19;;;;;;;1.55;1.15;;;17.70;99.90;;;;;;4908610;29;20194;-67
2021/07/29 04:44:45;;;;;;;1.85;1.70;;;17.60;99.90;;;;;;4907655;29;20772;-66
2021/07/29 04:47:15;;;;;;;1.15;0.98;;;17.60;99.90;;;;;;4908465;29;20206;-67
2021/07/29 04:49:40;;;;;;;1.35;1.00;;;17.60;99.90;;;;;;4908534;29;20202;-69
2021/07/29 04:52:06;;;;;;;2.10;1.20;;;17.60;99.90;;;;;;4908484;29;20186;-68
2021/07/29 04:54:32;;;;;;;1.45;1.10;;;17.50;99.90;;;;;;4908184;29;20670;-67
2021/07/29 04:56:57;;;;;;;1.98;1.40;;;17.50;99.90;;;;;;4908037;29;20206;-68
2021/07/29 04:59:23;;;;;;;1.55;1.33;;;17.50;99.90;;;;;;4908257;29;20642;-69
2021/07/29 05:01:49;;;;;;;1.48;0.93;;;17.60;99.90;;;;;;4907991;29;20194;-69
2021/07/29 05:04:15;;;;;;;1.42;1.23;;;17.50;99.90;;;;;;4907620;29;20197;-69
2021/07/29 05:06:41;;;;;;;1.20;1.10;;;17.60;99.90;;;;;;4908417;29;20670;-69
2021/07/29 05:09:08;;;;;;;2.30;1.38;;;17.70;99.90;;;;;;4907938;29;20193;-66
2021/07/29 05:11:33;;;;;;;1.98;1.27;;;17.50;99.90;;;;;;4908516;29;20219;-68
2021/07/29 05:13:59;;;;;;;1.40;1.17;;;17.50;99.90;;;;;;4906030;29;20212;-67
2021/07/29 05:16:24;;;;;;;1.40;1.10;;;17.60;99.90;;;;;;4907630;29;20216;-67
2021/07/29 05:18:50;;;;;;;1.20;0.90;;;17.70;99.90;;;;;;4907570;29;20658;-68
2021/07/29 05:21:16;;;;;;;1.50;0.88;;;17.80;99.90;;;;;;4907987;29;20187;-67
2021/07/29 05:23:42;;;;;;;1.58;1.48;;;17.60;99.90;;;;;;4906324;29;20245;-65
2021/07/29 05:26:14;;;;;;;1.83;1.33;;;17.70;99.90;;;;;;4907352;29;20198;-67
2021/07/29 05:28:39;;;;;;;3.20;1.20;;;17.60;99.90;;;;;;4907676;29;20182;-67
2021/07/29 05:31:12;;;;;;;1.38;1.10;;;17.60;99.90;;;;;;4908066;29;20651;-69
2021/07/29 05:33:38;;;;;;;1.38;1.27;;;17.60;99.90;;;;;;4907671;29;20635;-69
2021/07/29 05:36:05;;;;;;;2.90;1.15;;;17.50;99.90;;;;;;4907273;29;20260;-70
2021/07/29 05:38:32;;;;;;;2.05;1.20;;;17.50;99.90;;;;;;4907001;29;20195;-67
2021/07/29 05:40:59;;;;;;;1.60;1.15;;;17.50;99.90;;;;;;4907949;29;20187;-67
2021/07/29 05:43:27;;;;;;;1.85;1.00;;;17.40;99.90;;;;;;4907473;29;20719;-67
2021/07/29 05:45:53;;;;;;;2.55;1.33;;;17.40;99.90;;;;;;4906839;29;20306;-70
2021/07/29 05:48:18;;;;;;;2.95;0.90;;;17.40;99.90;;;;;;4907724;29;20270;-69
2021/07/29 05:50:46;;;;;;;1.70;0.90;;;17.30;99.90;;;;;;4907918;29;20631;-66
2021/07/29 05:53:11;;;;;;;0.93;0.90;;;17.30;99.90;;;;;;4907001;29;20190;-68
2021/07/29 05:55:37;;;;;;;1.85;1.05;;;17.20;99.90;;;;;;4906739;29;20219;-68
2021/07/29 05:58:02;;;;;;;2.83;1.08;;;17.30;99.90;;;;;;4907320;29;20222;-68
2021/07/29 06:00:28;;;;;;;1.77;1.55;;;17.40;99.90;;;;;;4907478;29;20191;-69
2021/07/29 06:02:54;;;;;;;1.98;1.10;;;17.60;99.90;;;;;;4907255;29;20194;-69
2021/07/29 06:05:19;;;;;;;1.25;1.00;;;17.70;99.90;;;;;;4906619;29;20218;-68
2021/07/29 06:07:45;;;;;;;1.13;0.85;;;17.70;99.90;;;;;;4907164;29;20198;-67
2021/07/29 06:10:11;;;;;;;0.85;0.80;;;17.70;99.90;;;;;;4907283;29;20194;-69
2021/07/29 06:12:37;;;;;;;1.17;0.88;;;17.80;99.90;;;;;;4907339;29;20631;-69
2021/07/29 06:15:03;;;;;;;1.27;0.90;;;17.90;99.90;;;;;;4906171;29;20219;-67
2021/07/29 06:17:34;;;;;;;1.00;0.90;;;18.10;99.90;;;;;;4907600;29;20256;-71
2021/07/29 06:20:07;;;;;;;1.08;1.00;;;18.40;99.90;;;;;;4907238;29;20183;-69
2021/07/29 06:22:33;;;;;;;1.40;1.00;;;18.70;99.90;;;;;;4906821;29;20183;-67
2021/07/29 06:25:00;;;;;;;3.97;1.10;;;18.90;99.90;;;;;;4905190;29;20194;-69
2021/07/29 06:27:26;;;;;;;0.82;0.63;;;19.00;99.90;;;;;;4907036;29;20195;-69
2021/07/29 06:29:52;;;;;;;0.88;0.75;;;19.10;99.90;;;;;;4907182;29;20198;-69
2021/07/29 06:32:17;;;;;;;3.35;0.90;;;19.20;99.90;;;;;;4910627;29;20207;-67
2021/07/29 06:34:43;;;;;;;0.82;0.82;;;19.50;99.90;;;;;;4909795;29;20213;-70
2021/07/29 06:37:08;;;;;;;1.70;0.73;;;19.50;99.90;;;;;;4909187;29;20585;-68
2021/07/29 06:39:34;;;;;;;1.52;0.73;;;19.40;99.90;;;;;;4910503;29;20182;-67
2021/07/29 06:42:00;;;;;;;1.35;0.68;;;19.30;99.90;;;;;;4910633;29;20183;-67
2021/07/29 06:44:26;;;;;;;0.60;0.60;;;19.30;99.90;;;;;;4909479;29;20565;-67
2021/07/29 06:46:51;;;;;;;0.57;0.57;;;19.20;99.90;;;;;;4910115;29;20210;-66
2021/07/29 06:49:17;;;;;;;1.40;0.93;;;19.20;99.90;;;;;;4909135;29;20286;-66
2021/07/29 06:51:43;;;;;;;0.90;0.90;;;19.20;99.90;;;;;;4909156;29;20198;-70
2021/07/29 06:54:08;;;;;;;0.77;0.70;;;19.40;99.90;;;;;;4909606;29;20707;-68
2021/07/29 06:56:34;;;;;;;1.00;0.90;;;19.40;99.90;;;;;;4910483;29;20713;-67
2021/07/29 06:59:00;;;;;;;1.05;0.90;;;19.60;99.90;;;;;;4910628;29;20187;-66
2021/07/29 07:01:26;;;;;;;0.50;0.50;;;19.60;99.90;;;;;;4909001;29;20678;-70
2021/07/29 07:03:52;;;;;;;1.15;0.88;;;19.70;99.90;;;;;;4908224;29;20183;-67
2021/07/29 07:06:18;;;;;;;1.90;0.57;;;19.80;99.90;;;;;;4909834;29;20290;-68
2021/07/29 07:08:43;;;;;;;1.40;0.52;;;19.80;99.90;;;;;;4910400;29;20274;-69
2021/07/29 07:11:19;;;;;;;1.52;0.70;;;19.80;99.90;;;;;;4910224;29;20686;-67
2021/07/29 07:13:47;;;;;;;0.50;0.50;;;19.90;99.90;;;;;;4908960;29;20278;-67
2021/07/29 07:16:13;;;;;;;1.73;0.73;;;20.00;99.90;;;;;;4910381;29;20202;-68
2021/07/29 07:18:43;;;;;;;0.63;0.60;;;20.00;99.90;;;;;;4909968;29;20210;-69
2021/07/29 07:21:10;;;;;;;1.13;0.60;;;20.10;99.90;;;;;;4910488;29;20226;-68
2021/07/29 07:23:40;;;;;;;0.90;0.70;;;20.10;99.90;;;;;;4910327;29;20197;-70
2021/07/29 07:26:16;;;;;;;0.95;0.75;;;20.10;99.90;;;;;;4909854;29;20231;-68
2021/07/29 07:28:42;;;;;;;1.17;0.80;;;20.00;99.90;;;;;;4910547;29;20190;-68
2021/07/29 07:31:08;;;;;;;3.75;0.70;;;20.00;99.90;;;;;;4910044;29;20242;-69
2021/07/29 07:33:34;;;;;;;0.68;0.50;;;20.10;99.90;;;;;;4909964;29;20201;-68
2021/07/29 07:36:00;;;;;;;1.23;0.50;;;20.00;99.90;;;;;;4909193;29;20218;-68
2021/07/29 07:38:25;;;;;;;1.15;0.60;;;20.10;99.90;;;;;;4910140;29;20215;-67
2021/07/29 07:40:51;;;;;;;0.60;0.57;;;20.20;99.90;;;;;;4909768;29;20175;-68
2021/07/29 07:43:17;;;;;;;0.52;0.52;;;20.20;99.90;;;;;;4910159;29;20653;-68
2021/07/29 07:45:43;;;;;;;0.75;0.60;;;20.10;99.90;;;;;;4909251;29;20211;-70
2021/07/29 07:48:09;;;;;;;1.52;0.68;;;20.40;99.90;;;;;;4909671;29;20178;-69
2021/07/29 07:50:39;;;;;;;3.55;0.52;;;20.40;99.90;;;;;;4910080;29;20219;-68
2021/07/29 07:53:06;;;;;;;0.95;0.52;;;20.50;99.90;;;;;;4909051;29;20297;-68
2021/07/29 07:55:32;;;;;;;1.02;0.60;;;20.60;99.90;;;;;;4908222;29;20387;-65
2021/07/29 07:57:57;;;;;;;2.67;0.70;;;20.70;99.90;;;;;;4909517;29;20182;-68
2021/07/29 08:00:23;;;;;;;1.27;0.60;;;20.90;99.90;;;;;;4909283;29;20538;-66
2021/07/29 08:02:48;;;;;;;0.95;0.70;;;21.10;99.90;;;;;;4908929;29;20266;-70
2021/07/29 08:05:14;;;;;;;0.65;0.60;;;21.10;99.90;;;;;;4908399;29;20195;-69
2021/07/29 08:07:40;;;;;;;0.60;0.45;;;21.00;99.90;;;;;;4909516;29;20202;-71
2021/07/29 08:10:06;;;;;;;0.50;0.50;;;20.80;99.90;;;;;;4909532;29;20187;-67
2021/07/29 08:12:32;;;;;;;0.90;0.65;;;20.70;99.90;;;;;;4909460;29;20206;-67
2021/07/29 08:14:57;;;;;;;0.82;0.70;;;20.80;99.90;;;;;;4908899;29;20210;-66
2021/07/29 08:17:23;;;;;;;0.82;0.65;;;20.90;99.90;;;;;;4909214;29;20206;-66
2021/07/29 08:19:48;;;;;;;0.50;0.45;;;21.20;99.90;;;;;;4909896;29;20322;-68
2021/07/29 08:22:14;;;;;;;0.50;0.50;;;21.50;99.90;;;;;;4908728;29;20183;-68
2021/07/29 08:24:40;;;;;;;0.77;0.52;;;21.50;99.90;;;;;;4908402;29;20198;-69
2021/07/29 08:27:05;;;;;;;1.83;0.98;;;21.70;99.90;;;;;;4909188;29;20210;-70
2021/07/29 08:29:32;;;;;;;1.48;0.57;;;22.20;99.90;;;;;;4909566;29;20195;-67
2021/07/29 08:31:58;;;;;;;1.13;0.70;;;22.50;99.90;;;;;;4907821;29;20195;-70
2021/07/29 08:34:24;;;;;;;1.23;0.77;;;22.50;99.90;;;;;;4907070;29;20206;-69
2021/07/29 08:36:50;;;;;;;0.85;0.70;;;22.70;99.90;;;;;;4906692;29;20741;-66
2021/07/29 08:39:16;;;;;;;0.77;0.50;;;22.50;99.90;;;;;;4907519;29;20201;-69
2021/07/29 08:41:41;;;;;;;0.80;0.70;;;22.20;99.90;;;;;;4908114;29;20318;-69
2021/07/29 08:44:07;;;;;;;0.73;0.73;;;22.00;99.90;;;;;;4905492;29;20229;-69
2021/07/29 08:46:36;;;;;;;0.93;0.77;;;22.10;99.90;;;;;;4906416;29;20302;-70
2021/07/29 08:49:02;;;;;;;0.95;0.63;;;22.30;99.90;;;;;;4906554;29;21016;-68
2021/07/29 08:51:28;;;;;;;1.60;0.60;;;22.20;99.90;;;;;;4907066;29;20201;-70
2021/07/29 08:53:54;;;;;;;0.73;0.70;;;22.50;99.90;;;;;;4903918;29;20183;-70
2021/07/29 08:56:24;;;;;;;2.05;0.98;;;22.90;99.90;;;;;;4906988;29;20206;-70
2021/07/29 08:58:52;;;;;;;0.50;0.50;;;23.00;99.90;;;;;;4906473;29;20616;-72
2021/07/29 09:01:18;;;;;;;0.90;0.90;;;22.80;99.90;;;;;;4906972;29;20179;-69
2021/07/29 09:03:44;;;;;;;0.95;0.82;;;23.00;99.90;;;;;;4903824;29;20210;-68
2021/07/29 09:06:15;;;;;;;2.55;0.70;;;23.20;99.90;;;;;;4906791;29;20207;-68
2021/07/29 09:08:50;;;;;;;0.90;0.68;;;23.40;99.90;;;;;;4906336;29;20195;-70
2021/07/29 09:11:32;;;;;;;1.05;0.70;;;23.70;99.90;;;;;;4906659;29;20190;-70
2021/07/29 09:14:03;;;;;;;1.02;0.60;;;24.00;99.90;;;;;;4901510;29;20201;-68
2021/07/29 09:16:33;;;;;;;1.00;0.82;;;23.90;99.90;;;;;;4905494;29;20277;-69
2021/07/29 09:19:00;;;;;;;0.73;0.50;;;24.00;99.90;;;;;;4905968;29;20598;-71
2021/07/29 09:21:25;;;;;;;0.90;0.63;;;24.20;99.90;;;;;;4906203;29;20186;-67
2021/07/29 09:24:08;;;;;;;0.57;0.47;;;24.20;99.90;;;;;;4904242;29;20235;-69
2021/07/29 09:26:59;;;;;;;0.90;0.70;;;24.00;99.90;;;;;;4905934;29;20390;-69
2021/07/29 09:29:27;;;;;;;1.05;0.95;;;23.90;99.90;;;;;;4905248;29;20214;-67
2021/07/29 09:32:11;;;;;;;1.30;0.70;;;24.00;99.90;;;;;;4906643;29;20274;-66
2021/07/29 09:34:48;;;;;;;1.25;0.70;;;23.80;99.90;;;;;;4904853;29;20214;-69
2021/07/29 09:37:15;;;;;;;0.80;0.50;;;23.70;99.90;;;;;;4905611;29;20210;-70
2021/07/29 09:39:41;;;;;;;1.15;0.88;;;23.70;99.90;;;;;;4905607;29;20327;-70
2021/07/29 09:42:22;;;;;;;0.98;0.88;;;23.70;99.90;;;;;;4905709;29;20274;-68
2021/07/29 09:44:53;;;;;;;0.73;0.55;;;23.70;99.90;;;;;;4904091;29;20197;-69
2021/07/29 09:47:20;;;;;;;0.82;0.80;;;23.50;99.90;;;;;;4905553;29;20321;-68
2021/07/29 09:49:47;;;;;;;2.00;0.85;;;23.30;99.90;;;;;;4905810;29;20286;-67
2021/07/29 09:52:13;;;;;;;0.77;0.70;;;23.20;99.90;;;;;;4905614;29;20194;-69
2021/07/29 09:54:44;;;;;;;1.30;0.80;;;23.10;99.90;;;;;;4904509;29;20203;-67
2021/07/29 09:57:11;;;;;;;0.90;0.57;;;22.90;99.90;;;;;;4905309;29;20195;-71
2021/07/29 09:59:38;;;;;;;1.58;0.85;;;22.50;99.90;;;;;;4905715;29;20246;-70
2021/07/29 10:02:06;;;;;;;0.50;0.43;;;22.20;99.90;;;;;;4906268;29;20215;-69
2021/07/29 10:04:46;;;;;;;2.63;1.10;;;22.20;99.90;;;;;;4906882;29;20242;-68
2021/07/29 10:07:23;;;;;;;0.77;0.50;;;22.10;99.90;;;;;;4908183;29;20214;-69
2021/07/29 10:09:49;;;;;;;0.88;0.77;;;22.10;99.90;;;;;;4909986;29;20189;-67
2021/07/29 10:12:20;;;;;;;0.52;0.50;;;21.90;99.90;;;;;;4911574;29;20199;-70
2021/07/29 10:14:54;;;;;;;0.63;0.60;;;21.80;99.90;;;;;;4909883;29;20247;-70
2021/07/29 10:18:02;;;;;;;1.52;0.70;;;21.90;99.90;;;;;;4910443;29;20210;-67
2021/07/29 10:20:32;;;;;;;1.85;0.57;;;22.10;99.90;;;;;;4905281;29;20205;-68
2021/07/29 10:23:13;;;;;;;0.60;0.60;;;22.30;99.90;;;;;;4910353;29;20679;-69
2021/07/29 10:26:03;;;;;;;1.15;0.88;;;22.80;99.90;;;;;;4911067;29;20241;-67
2021/07/29 10:28:39;;;;;;;1.05;0.60;;;22.90;99.90;;;;;;4912088;29;20271;-66
2021/07/29 10:31:07;;;;;;;0.68;0.50;;;23.20;99.90;;;;;;4910375;29;20673;-68
2021/07/29 10:33:33;;;;;;;0.73;0.60;;;23.50;99.90;;;;;;4910881;29;21157;-67
2021/07/29 10:36:01;;;;;;;0.88;0.73;;;23.60;99.70;;;;;;4910394;29;20206;-69
2021/07/29 10:38:38;;;;;;;2.50;0.60;;;23.70;98.60;;;;;;4910806;29;20211;-66
2021/07/29 10:41:05;;;;;;;0.50;0.50;;;23.80;99.90;;;;;;4907846;29;20242;-70
2021/07/29 10:43:31;;;;;;;1.02;0.65;;;23.90;97.70;;;;;;4906646;29;20210;-67
2021/07/29 10:45:58;;;;;;;0.63;0.63;;;23.60;97.70;;;;;;4910057;29;20278;-69
2021/07/29 10:48:43;;;;;;;1.10;0.55;;;23.30;98.00;;;;;;4910547;29;20214;-70
2021/07/29 10:51:16;;;;;;;1.27;0.50;;;23.10;98.70;;;;;;4910415;29;20190;-69
2021/07/29 10:53:43;;;;;;;1.33;0.57;;;23.50;97.30;;;;;;4910062;29;20221;-68
2021/07/29 10:56:13;;;;;;;2.58;1.00;;;23.90;97.00;;;;;;4909292;29;20266;-68
2021/07/29 10:58:42;;;;;;;0.40;0.40;;;24.20;95.00;;;;;;4909796;29;21227;-69
2021/07/29 11:01:12;;;;;;;0.88;0.45;;;23.90;95.50;;;;;;4910341;29;20190;-70
2021/07/29 11:03:45;;;;;;;1.38;0.47;;;24.00;95.80;;;;;;4910116;29;20238;-67
2021/07/29 11:06:13;;;;;;;1.30;0.65;;;23.40;94.90;;;;;;4909530;29;20207;-69
2021/07/29 11:08:40;;;;;;;0.75;0.60;;;23.20;95.10;;;;;;4909297;29;20195;-68
2021/07/29 11:11:07;;;;;;;0.60;0.55;;;22.90;95.20;;;;;;4910269;29;20187;-66
2021/07/29 11:13:35;;;;;;;1.90;0.73;;;22.70;95.80;;;;;;4907796;29;20222;-69
2021/07/29 11:16:01;;;;;;;0.35;0.35;;;22.90;96.50;;;;;;4907074;29;20211;-69
2021/07/29 11:18:27;;;;;;;1.38;0.60;;;23.20;95.20;;;;;;4910037;29;20254;-69
2021/07/29 11:20:53;;;;;;;0.60;0.50;;;23.40;95.40;;;;;;4908987;29;20183;-69
2021/07/29 11:23:33;;;;;;;0.65;0.65;;;23.60;94.40;;;;;;4910116;29;20190;-68
2021/07/29 11:26:00;;;;;;;0.93;0.65;;;23.50;94.80;;;;;;4908046;29;20742;-69
2021/07/29 11:28:26;;;;;;;1.50;0.80;;;23.40;94.60;;;;;;4910013;29;20225;-67
2021/07/29 11:30:51;;;;;;;1.23;0.60;;;23.10;94.60;;;;;;4909038;29;20224;-68
2021/07/29 11:33:28;;;;;;;3.80;1.17;;;22.90;94.40;;;;;;4909051;29;20191;-67
2021/07/29 11:35:55;;;;;;;1.92;1.25;;;22.60;96.00;;;;;;4908741;29;20210;-69
2021/07/29 11:38:23;;;;;;;0.80;0.70;;;22.70;96.10;;;;;;4910019;29;20608;-69
2021/07/29 11:41:00;;;;;;;0.82;0.50;;;23.00;94.80;;;;;;4909739;29;20635;-65
2021/07/29 11:43:28;;;;;;;0.80;0.55;;;23.40;94.60;;;;;;4909438;29;20225;-68
2021/07/29 11:46:05;;;;;;;1.17;0.70;;;23.70;93.50;;;;;;4908280;29;20215;-66
2021/07/29 11:48:30;;;;;;;0.70;0.70;;;23.60;91.60;;;;;;4908474;29;20191;-70
2021/07/29 11:50:56;;;;;;;0.52;0.52;;;23.20;91.70;;;;;;4909705;29;20187;-68
2021/07/29 11:53:40;;;;;;;0.40;0.40;;;23.30;92.20;;;;;;4909568;29;20209;-71
2021/07/29 11:56:10;;;;;;;0.60;0.50;;;23.30;93.00;;;;;;4908718;29;20214;-68
2021/07/29 11:58:39;;;;;;;0.70;0.70;;;23.30;92.80;;;;;;4909472;29;20651;-70
2021/07/29 12:01:12;;;;;;;1.70;1.00;;;23.40;92.60;;;;;;4909317;29;20187;-71
2021/07/29 12:03:47;;;;;;;0.85;0.70;;;23.70;93.30;;;;;;4909367;29;20274;-67
2021/07/29 12:06:15;;;;;;;0.82;0.50;;;24.20;91.70;;;;;;4908746;29;20791;-66
2021/07/29 12:08:42;;;;;;;2.35;0.50;;;24.40;91.30;;;;;;4908973;29;20671;-67
2021/07/29 12:13:49;;;;;;;1.50;0.65;;;24.80;90.00;;;;;;4940267;23;20248;-77
2021/07/29 12:16:15;;;;;;;0.50;0.50;;;25.10;88.80;;;;;;4944197;29;20218;-77
2021/07/29 12:18:40;;;;;;;0.80;0.57;;;25.30;85.20;;;;;;4945520;28;20198;-77
2021/07/29 12:21:06;;;;;;;0.60;0.60;;;24.90;82.90;;;;;;4943758;28;20185;-78
2021/07/29 12:23:32;;;;;;;1.33;0.70;;;24.90;85.80;;;;;;4944958;28;20474;-77
2021/07/29 12:26:12;;;;;;;1.23;0.73;;;24.90;86.00;;;;;;4943853;28;20204;-77
2021/07/29 12:28:43;;;;;;;2.75;0.70;;;24.90;84.80;;;;;;4949455;28;20185;-77
2021/07/29 12:31:20;;;;;;;0.60;0.60;;;24.60;84.70;;;;;;4942942;29;20241;-78
2021/07/29 12:33:57;;;;;;;0.60;0.60;;;24.30;85.10;;;;;;4943150;29;20190;-77
2021/07/29 12:36:24;;;;;;;0.80;0.80;;;24.10;86.40;;;;;;4943799;29;20216;-78
2021/07/29 12:39:11;;;;;;;0.57;0.50;;;24.40;86.40;;;;;;4943893;29;20431;-77
2021/07/29 12:41:38;;;;;;;1.20;0.50;;;25.00;85.70;;;;;;4933656;29;20298;-77
2021/07/29 12:44:09;;;;;;;0.60;0.50;;;25.30;85.40;;;;;;4943730;29;20182;-78
2021/07/29 12:46:35;;;;;;;0.95;0.70;;;25.20;84.10;;;;;;4943138;29;20228;-78
2021/07/29 12:49:00;;;;;;;1.60;0.60;;;25.30;83.80;;;;;;4946439;28;20660;-79
2021/07/29 12:51:49;;;;;;;1.77;0.93;;;25.30;84.60;;;;;;4946793;29;20193;-77
2021/07/29 12:54:16;;;;;;;2.45;0.70;;;25.30;83.50;;;;;;4943286;28;20221;-80